sensor_id;sensor_type;location;lat;lon;timestamp;P1;durP1;ratioP1;P2;durP2;ratioP2
29120;SDS011;16191;49.548;8.658;2023-05-10T00:01:12;2.25;;;0.80;;
29120;SDS011;16191;49.548;8.658;2023-05-10T00:03:39;4.15;;;1.58;;
29120;SDS011;16191;49.548;8.658;2023-05-10T00:06:06;1.63;;;1.05;;
29120;SDS011;16191;49.548;8.658;2023-05-10T00:08:33;0.90;;;0.90;;
29120;SDS011;16191;49.548;8.658;2023-05-10T00:10:59;2.80;;;1.33;;
29120;SDS011;16191;49.548;8.658;2023-05-10T00:13:26;2.90;;;1.80;;
29120;SDS011;16191;49.548;8.658;2023-05-10T00:15:53;4.35;;;2.30;;
29120;SDS011;16191;49.548;8.658;2023-05-10T00:18:19;5.13;;;2.45;;
29120;SDS011;16191;49.548;8.658;2023-05-10T00:20:46;4.28;;;2.08;;
29120;SDS011;16191;49.548;8.658;2023-05-10T00:23:12;2.90;;;2.10;;
29120;SDS011;16191;49.548;8.658;2023-05-10T00:25:39;3.20;;;2.20;;
29120;SDS011;16191;49.548;8.658;2023-05-10T00:28:05;9.13;;;2.42;;
29120;SDS011;16191;49.548;8.658;2023-05-10T00:30:32;4.18;;;3.00;;
29120;SDS011;16191;49.548;8.658;2023-05-10T00:33:00;9.05;;;2.45;;
29120;SDS011;16191;49.548;8.658;2023-05-10T00:35:27;5.32;;;3.08;;
29120;SDS011;16191;49.548;8.658;2023-05-10T00:37:53;2.45;;;2.00;;
29120;SDS011;16191;49.548;8.658;2023-05-10T00:40:20;4.13;;;1.98;;
29120;SDS011;16191;49.548;8.658;2023-05-10T00:42:52;3.50;;;2.40;;
29120;SDS011;16191;49.548;8.658;2023-05-10T00:45:18;4.80;;;2.28;;
29120;SDS011;16191;49.548;8.658;2023-05-10T00:47:45;3.75;;;2.38;;
29120;SDS011;16191;49.548;8.658;2023-05-10T00:50:12;3.70;;;3.08;;
29120;SDS011;16191;49.548;8.658;2023-05-10T00:52:41;5.10;;;2.33;;
29120;SDS011;16191;49.548;8.658;2023-05-10T00:55:09;3.00;;;2.13;;
29120;SDS011;16191;49.548;8.658;2023-05-10T00:57:38;3.58;;;2.30;;
29120;SDS011;16191;49.548;8.658;2023-05-10T01:00:05;2.45;;;1.50;;
29120;SDS011;16191;49.548;8.658;2023-05-10T01:02:33;3.00;;;1.55;;
29120;SDS011;16191;49.548;8.658;2023-05-10T01:05:01;2.13;;;1.50;;
29120;SDS011;16191;49.548;8.658;2023-05-10T01:07:29;2.08;;;1.55;;
29120;SDS011;16191;49.548;8.658;2023-05-10T01:09:56;3.47;;;1.67;;
29120;SDS011;16191;49.548;8.658;2023-05-10T01:12:23;5.78;;;1.70;;
29120;SDS011;16191;49.548;8.658;2023-05-10T01:14:50;2.53;;;1.58;;
29120;SDS011;16191;49.548;8.658;2023-05-10T01:17:17;2.22;;;1.38;;
29120;SDS011;16191;49.548;8.658;2023-05-10T01:19:44;1.90;;;1.58;;
29120;SDS011;16191;49.548;8.658;2023-05-10T01:31:30;2.25;;;1.40;;
29120;SDS011;16191;49.548;8.658;2023-05-10T01:34:34;3.50;;;1.20;;
29120;SDS011;16191;49.548;8.658;2023-05-10T01:37:36;1.50;;;1.30;;
29120;SDS011;16191;49.548;8.658;2023-05-10T01:40:30;2.35;;;1.40;;
29120;SDS011;16191;49.548;8.658;2023-05-10T01:43:22;1.35;;;1.25;;
29120;SDS011;16191;49.548;8.658;2023-05-10T01:46:01;3.17;;;1.67;;
29120;SDS011;16191;49.548;8.658;2023-05-10T01:48:38;2.80;;;1.20;;
29120;SDS011;16191;49.548;8.658;2023-05-10T01:51:13;1.38;;;1.20;;
29120;SDS011;16191;49.548;8.658;2023-05-10T01:53:45;2.30;;;1.25;;
29120;SDS011;16191;49.548;8.658;2023-05-10T01:56:15;1.35;;;1.13;;
29120;SDS011;16191;49.548;8.658;2023-05-10T01:58:44;3.60;;;1.35;;
29120;SDS011;16191;49.548;8.658;2023-05-10T02:01:14;3.53;;;1.38;;
29120;SDS011;16191;49.548;8.658;2023-05-10T02:03:43;1.52;;;0.90;;
29120;SDS011;16191;49.548;8.658;2023-05-10T02:06:11;1.65;;;1.10;;
29120;SDS011;16191;49.548;8.658;2023-05-10T02:08:41;0.93;;;0.93;;
29120;SDS011;16191;49.548;8.658;2023-05-10T02:11:08;1.33;;;1.00;;
29120;SDS011;16191;49.548;8.658;2023-05-10T02:13:38;2.17;;;1.20;;
29120;SDS011;16191;49.548;8.658;2023-05-10T02:16:06;1.15;;;0.80;;
29120;SDS011;16191;49.548;8.658;2023-05-10T02:18:33;1.83;;;1.00;;
29120;SDS011;16191;49.548;8.658;2023-05-10T02:21:02;1.85;;;1.20;;
29120;SDS011;16191;49.548;8.658;2023-05-10T02:23:29;1.42;;;0.80;;
29120;SDS011;16191;49.548;8.658;2023-05-10T02:25:57;1.33;;;1.00;;
29120;SDS011;16191;49.548;8.658;2023-05-10T02:28:26;3.45;;;1.27;;
29120;SDS011;16191;49.548;8.658;2023-05-10T02:30:54;1.30;;;0.88;;
29120;SDS011;16191;49.548;8.658;2023-05-10T02:33:22;1.95;;;1.20;;
29120;SDS011;16191;49.548;8.658;2023-05-10T02:35:51;2.25;;;0.88;;
29120;SDS011;16191;49.548;8.658;2023-05-10T02:38:18;1.23;;;0.90;;
29120;SDS011;16191;49.548;8.658;2023-05-10T02:43:16;1.08;;;0.98;;
29120;SDS011;16191;49.548;8.658;2023-05-10T02:45:46;3.53;;;0.90;;
29120;SDS011;16191;49.548;8.658;2023-05-10T02:48:14;1.07;;;0.70;;
29120;SDS011;16191;49.548;8.658;2023-05-10T02:50:43;2.88;;;0.85;;
29120;SDS011;16191;49.548;8.658;2023-05-10T02:53:15;2.92;;;1.00;;
29120;SDS011;16191;49.548;8.658;2023-05-10T02:55:45;3.53;;;1.10;;
29120;SDS011;16191;49.548;8.658;2023-05-10T02:58:17;1.08;;;0.93;;
29120;SDS011;16191;49.548;8.658;2023-05-10T03:00:45;1.25;;;0.80;;
29120;SDS011;16191;49.548;8.658;2023-05-10T03:03:12;1.75;;;0.90;;
29120;SDS011;16191;49.548;8.658;2023-05-10T03:05:39;1.05;;;0.73;;
29120;SDS011;16191;49.548;8.658;2023-05-10T03:08:05;2.25;;;0.60;;
29120;SDS011;16191;49.548;8.658;2023-05-10T03:10:33;1.33;;;0.88;;
29120;SDS011;16191;49.548;8.658;2023-05-10T03:13:10;1.98;;;0.82;;
29120;SDS011;16191;49.548;8.658;2023-05-10T03:15:58;1.63;;;1.15;;
29120;SDS011;16191;49.548;8.658;2023-05-10T03:18:42;1.65;;;0.90;;
29120;SDS011;16191;49.548;8.658;2023-05-10T03:21:11;5.72;;;1.10;;
29120;SDS011;16191;49.548;8.658;2023-05-10T03:23:41;1.52;;;0.95;;
29120;SDS011;16191;49.548;8.658;2023-05-10T03:26:14;3.72;;;1.15;;
29120;SDS011;16191;49.548;8.658;2023-05-10T03:28:44;1.33;;;1.05;;
29120;SDS011;16191;49.548;8.658;2023-05-10T03:31:11;3.25;;;1.00;;
29120;SDS011;16191;49.548;8.658;2023-05-10T03:33:45;2.30;;;1.40;;
29120;SDS011;16191;49.548;8.658;2023-05-10T03:36:14;2.72;;;1.73;;
29120;SDS011;16191;49.548;8.658;2023-05-10T03:38:41;2.85;;;1.70;;
29120;SDS011;16191;49.548;8.658;2023-05-10T03:41:07;4.30;;;1.60;;
29120;SDS011;16191;49.548;8.658;2023-05-10T03:43:34;3.13;;;1.50;;
29120;SDS011;16191;49.548;8.658;2023-05-10T03:46:01;2.38;;;1.60;;
29120;SDS011;16191;49.548;8.658;2023-05-10T03:48:30;3.33;;;2.17;;
29120;SDS011;16191;49.548;8.658;2023-05-10T03:50:58;2.80;;;1.63;;
29120;SDS011;16191;49.548;8.658;2023-05-10T03:53:25;4.90;;;1.50;;
29120;SDS011;16191;49.548;8.658;2023-05-10T03:55:51;2.08;;;1.35;;
29120;SDS011;16191;49.548;8.658;2023-05-10T03:58:18;5.78;;;1.60;;
29120;SDS011;16191;49.548;8.658;2023-05-10T04:00:45;3.40;;;1.60;;
29120;SDS011;16191;49.548;8.658;2023-05-10T04:03:13;1.70;;;1.60;;
29120;SDS011;16191;49.548;8.658;2023-05-10T04:05:39;2.30;;;1.60;;
29120;SDS011;16191;49.548;8.658;2023-05-10T04:08:06;3.38;;;1.83;;
29120;SDS011;16191;49.548;8.658;2023-05-10T04:10:33;2.15;;;1.48;;
29120;SDS011;16191;49.548;8.658;2023-05-10T04:12:59;8.02;;;1.50;;
29120;SDS011;16191;49.548;8.658;2023-05-10T04:15:26;7.10;;;1.48;;
29120;SDS011;16191;49.548;8.658;2023-05-10T04:17:52;3.45;;;1.35;;
29120;SDS011;16191;49.548;8.658;2023-05-10T04:20:19;2.75;;;1.40;;
29120;SDS011;16191;49.548;8.658;2023-05-10T04:22:46;4.53;;;1.40;;
29120;SDS011;16191;49.548;8.658;2023-05-10T04:25:13;3.83;;;1.27;;
29120;SDS011;16191;49.548;8.658;2023-05-10T04:27:39;2.13;;;1.30;;
29120;SDS011;16191;49.548;8.658;2023-05-10T04:30:06;2.85;;;1.40;;
29120;SDS011;16191;49.548;8.658;2023-05-10T04:32:33;1.77;;;1.27;;
29120;SDS011;16191;49.548;8.658;2023-05-10T04:35:00;4.20;;;1.42;;
29120;SDS011;16191;49.548;8.658;2023-05-10T04:37:29;1.40;;;1.30;;
29120;SDS011;16191;49.548;8.658;2023-05-10T04:39:55;1.92;;;1.27;;
29120;SDS011;16191;49.548;8.658;2023-05-10T04:42:22;3.85;;;1.42;;
29120;SDS011;16191;49.548;8.658;2023-05-10T04:44:49;2.67;;;1.48;;
29120;SDS011;16191;49.548;8.658;2023-05-10T04:47:15;2.88;;;1.70;;
29120;SDS011;16191;49.548;8.658;2023-05-10T04:49:42;3.30;;;1.40;;
29120;SDS011;16191;49.548;8.658;2023-05-10T04:52:09;3.03;;;1.38;;
29120;SDS011;16191;49.548;8.658;2023-05-10T04:54:35;2.90;;;1.40;;
29120;SDS011;16191;49.548;8.658;2023-05-10T04:57:02;4.70;;;2.42;;
29120;SDS011;16191;49.548;8.658;2023-05-10T04:59:29;2.75;;;1.25;;
29120;SDS011;16191;49.548;8.658;2023-05-10T05:01:55;2.53;;;1.35;;
29120;SDS011;16191;49.548;8.658;2023-05-10T05:04:22;3.28;;;1.30;;
29120;SDS011;16191;49.548;8.658;2023-05-10T05:06:50;3.10;;;1.40;;
29120;SDS011;16191;49.548;8.658;2023-05-10T05:09:19;2.17;;;1.45;;
29120;SDS011;16191;49.548;8.658;2023-05-10T05:11:46;4.22;;;1.52;;
29120;SDS011;16191;49.548;8.658;2023-05-10T05:14:12;5.90;;;1.65;;
29120;SDS011;16191;49.548;8.658;2023-05-10T05:16:39;2.85;;;1.63;;
29120;SDS011;16191;49.548;8.658;2023-05-10T05:19:05;3.70;;;1.60;;
29120;SDS011;16191;49.548;8.658;2023-05-10T05:21:32;3.60;;;1.50;;
29120;SDS011;16191;49.548;8.658;2023-05-10T05:23:59;3.17;;;1.52;;
29120;SDS011;16191;49.548;8.658;2023-05-10T05:26:26;2.78;;;1.80;;
29120;SDS011;16191;49.548;8.658;2023-05-10T05:28:52;5.10;;;1.65;;
29120;SDS011;16191;49.548;8.658;2023-05-10T05:31:20;2.50;;;1.60;;
29120;SDS011;16191;49.548;8.658;2023-05-10T05:33:47;6.00;;;1.45;;
29120;SDS011;16191;49.548;8.658;2023-05-10T05:36:14;1.92;;;1.70;;
29120;SDS011;16191;49.548;8.658;2023-05-10T05:38:40;1.70;;;1.50;;
29120;SDS011;16191;49.548;8.658;2023-05-10T05:41:07;3.80;;;1.73;;
29120;SDS011;16191;49.548;8.658;2023-05-10T05:43:33;3.08;;;2.17;;
29120;SDS011;16191;49.548;8.658;2023-05-10T05:46:03;1.88;;;1.67;;
29120;SDS011;16191;49.548;8.658;2023-05-10T05:48:30;5.28;;;2.30;;
29120;SDS011;16191;49.548;8.658;2023-05-10T05:50:57;3.13;;;2.00;;
29120;SDS011;16191;49.548;8.658;2023-05-10T05:53:24;5.15;;;2.20;;
29120;SDS011;16191;49.548;8.658;2023-05-10T05:55:54;3.53;;;2.20;;
29120;SDS011;16191;49.548;8.658;2023-05-10T05:58:22;3.67;;;2.40;;
29120;SDS011;16191;49.548;8.658;2023-05-10T06:00:49;3.38;;;2.35;;
29120;SDS011;16191;49.548;8.658;2023-05-10T06:03:16;5.07;;;2.65;;
29120;SDS011;16191;49.548;8.658;2023-05-10T06:05:43;4.47;;;3.25;;
29120;SDS011;16191;49.548;8.658;2023-05-10T06:08:10;6.18;;;2.50;;
29120;SDS011;16191;49.548;8.658;2023-05-10T06:10:36;3.90;;;2.45;;
29120;SDS011;16191;49.548;8.658;2023-05-10T06:13:03;4.03;;;2.70;;
29120;SDS011;16191;49.548;8.658;2023-05-10T06:15:30;6.30;;;3.00;;
29120;SDS011;16191;49.548;8.658;2023-05-10T06:17:56;5.60;;;2.17;;
29120;SDS011;16191;49.548;8.658;2023-05-10T06:20:23;4.78;;;2.78;;
29120;SDS011;16191;49.548;8.658;2023-05-10T06:22:49;4.60;;;2.53;;
29120;SDS011;16191;49.548;8.658;2023-05-10T06:25:16;3.05;;;2.30;;
29120;SDS011;16191;49.548;8.658;2023-05-10T06:27:44;6.00;;;2.28;;
29120;SDS011;16191;49.548;8.658;2023-05-10T06:30:16;2.30;;;2.10;;
29120;SDS011;16191;49.548;8.658;2023-05-10T06:32:42;9.07;;;2.50;;
29120;SDS011;16191;49.548;8.658;2023-05-10T06:35:10;5.03;;;2.70;;
29120;SDS011;16191;49.548;8.658;2023-05-10T06:37:37;3.50;;;2.28;;
29120;SDS011;16191;49.548;8.658;2023-05-10T06:40:03;2.58;;;2.00;;
29120;SDS011;16191;49.548;8.658;2023-05-10T06:42:31;2.47;;;2.25;;
29120;SDS011;16191;49.548;8.658;2023-05-10T06:44:57;4.57;;;2.30;;
29120;SDS011;16191;49.548;8.658;2023-05-10T06:47:24;4.05;;;2.25;;
29120;SDS011;16191;49.548;8.658;2023-05-10T06:49:51;2.95;;;2.13;;
29120;SDS011;16191;49.548;8.658;2023-05-10T06:52:17;4.18;;;2.25;;
29120;SDS011;16191;49.548;8.658;2023-05-10T06:54:43;3.70;;;2.28;;
29120;SDS011;16191;49.548;8.658;2023-05-10T06:57:10;5.45;;;2.33;;
29120;SDS011;16191;49.548;8.658;2023-05-10T06:59:55;3.63;;;2.58;;
29120;SDS011;16191;49.548;8.658;2023-05-10T07:02:22;5.60;;;2.20;;
29120;SDS011;16191;49.548;8.658;2023-05-10T07:04:49;9.57;;;3.08;;
29120;SDS011;16191;49.548;8.658;2023-05-10T07:07:16;4.13;;;2.80;;
29120;SDS011;16191;49.548;8.658;2023-05-10T07:09:42;4.35;;;2.80;;
29120;SDS011;16191;49.548;8.658;2023-05-10T07:12:09;5.10;;;3.00;;
29120;SDS011;16191;49.548;8.658;2023-05-10T07:17:06;4.15;;;2.80;;
29120;SDS011;16191;49.548;8.658;2023-05-10T07:19:32;5.55;;;2.85;;
29120;SDS011;16191;49.548;8.658;2023-05-10T07:21:59;3.20;;;2.88;;
29120;SDS011;16191;49.548;8.658;2023-05-10T07:24:26;5.90;;;3.10;;
29120;SDS011;16191;49.548;8.658;2023-05-10T07:26:52;4.75;;;2.40;;
29120;SDS011;16191;49.548;8.658;2023-05-10T07:29:19;6.00;;;2.70;;
29120;SDS011;16191;49.548;8.658;2023-05-10T07:31:45;5.25;;;3.00;;
29120;SDS011;16191;49.548;8.658;2023-05-10T07:34:12;7.50;;;2.78;;
29120;SDS011;16191;49.548;8.658;2023-05-10T07:36:38;5.80;;;2.60;;
29120;SDS011;16191;49.548;8.658;2023-05-10T07:39:05;2.75;;;2.08;;
29120;SDS011;16191;49.548;8.658;2023-05-10T07:41:31;2.38;;;2.10;;
29120;SDS011;16191;49.548;8.658;2023-05-10T07:44:00;4.80;;;2.47;;
29120;SDS011;16191;49.548;8.658;2023-05-10T07:46:27;3.50;;;2.63;;
29120;SDS011;16191;49.548;8.658;2023-05-10T07:48:55;4.10;;;2.97;;
29120;SDS011;16191;49.548;8.658;2023-05-10T07:51:21;3.53;;;2.30;;
29120;SDS011;16191;49.548;8.658;2023-05-10T07:53:48;2.78;;;2.35;;
29120;SDS011;16191;49.548;8.658;2023-05-10T07:56:22;3.03;;;2.17;;
29120;SDS011;16191;49.548;8.658;2023-05-10T07:58:51;5.70;;;2.28;;
29120;SDS011;16191;49.548;8.658;2023-05-10T08:01:18;4.07;;;1.98;;
29120;SDS011;16191;49.548;8.658;2023-05-10T08:03:45;5.47;;;2.20;;
29120;SDS011;16191;49.548;8.658;2023-05-10T08:06:11;6.72;;;1.90;;
29120;SDS011;16191;49.548;8.658;2023-05-10T08:08:38;5.28;;;2.05;;
29120;SDS011;16191;49.548;8.658;2023-05-10T08:11:04;2.83;;;1.70;;
29120;SDS011;16191;49.548;8.658;2023-05-10T08:13:31;6.60;;;1.98;;
29120;SDS011;16191;49.548;8.658;2023-05-10T08:15:58;3.72;;;1.75;;
29120;SDS011;16191;49.548;8.658;2023-05-10T08:18:24;3.85;;;2.20;;
29120;SDS011;16191;49.548;8.658;2023-05-10T08:20:51;3.22;;;1.50;;
29120;SDS011;16191;49.548;8.658;2023-05-10T08:23:17;4.78;;;1.90;;
29120;SDS011;16191;49.548;8.658;2023-05-10T08:25:44;2.20;;;2.00;;
29120;SDS011;16191;49.548;8.658;2023-05-10T08:28:11;4.97;;;1.80;;
29120;SDS011;16191;49.548;8.658;2023-05-10T08:30:37;2.83;;;2.00;;
29120;SDS011;16191;49.548;8.658;2023-05-10T08:33:04;5.60;;;1.55;;
29120;SDS011;16191;49.548;8.658;2023-05-10T08:35:31;4.72;;;1.60;;
29120;SDS011;16191;49.548;8.658;2023-05-10T08:37:59;2.05;;;1.63;;
29120;SDS011;16191;49.548;8.658;2023-05-10T08:40:25;2.50;;;1.50;;
29120;SDS011;16191;49.548;8.658;2023-05-10T08:42:55;4.22;;;1.83;;
29120;SDS011;16191;49.548;8.658;2023-05-10T08:45:26;5.28;;;1.70;;
29120;SDS011;16191;49.548;8.658;2023-05-10T08:47:59;1.73;;;1.60;;
29120;SDS011;16191;49.548;8.658;2023-05-10T08:50:28;2.05;;;1.33;;
29120;SDS011;16191;49.548;8.658;2023-05-10T08:52:56;1.92;;;1.30;;
29120;SDS011;16191;49.548;8.658;2023-05-10T08:55:25;6.63;;;1.73;;
29120;SDS011;16191;49.548;8.658;2023-05-10T08:57:52;6.88;;;1.80;;
29120;SDS011;16191;49.548;8.658;2023-05-10T09:00:19;2.05;;;1.50;;
29120;SDS011;16191;49.548;8.658;2023-05-10T09:02:46;4.45;;;1.70;;
29120;SDS011;16191;49.548;8.658;2023-05-10T09:05:15;3.00;;;1.83;;
29120;SDS011;16191;49.548;8.658;2023-05-10T09:07:44;3.40;;;2.03;;
29120;SDS011;16191;49.548;8.658;2023-05-10T09:10:10;2.78;;;1.90;;
29120;SDS011;16191;49.548;8.658;2023-05-10T09:12:39;2.53;;;1.25;;
29120;SDS011;16191;49.548;8.658;2023-05-10T09:15:06;1.98;;;1.23;;
29120;SDS011;16191;49.548;8.658;2023-05-10T09:17:35;4.28;;;1.23;;
29120;SDS011;16191;49.548;8.658;2023-05-10T09:20:03;2.53;;;1.15;;
29120;SDS011;16191;49.548;8.658;2023-05-10T09:22:30;4.57;;;1.42;;
29120;SDS011;16191;49.548;8.658;2023-05-10T09:27:31;5.38;;;1.45;;
29120;SDS011;16191;49.548;8.658;2023-05-10T09:29:58;6.20;;;1.90;;
29120;SDS011;16191;49.548;8.658;2023-05-10T09:32:38;6.68;;;1.90;;
29120;SDS011;16191;49.548;8.658;2023-05-10T09:37:36;7.95;;;1.50;;
29120;SDS011;16191;49.548;8.658;2023-05-10T09:40:05;1.92;;;1.20;;
29120;SDS011;16191;49.548;8.658;2023-05-10T09:42:34;3.70;;;1.50;;
29120;SDS011;16191;49.548;8.658;2023-05-10T09:45:02;5.63;;;1.65;;
29120;SDS011;16191;49.548;8.658;2023-05-10T09:47:33;3.92;;;1.80;;
29120;SDS011;16191;49.548;8.658;2023-05-10T09:50:01;1.83;;;1.65;;
29120;SDS011;16191;49.548;8.658;2023-05-10T09:52:30;6.28;;;1.85;;
29120;SDS011;16191;49.548;8.658;2023-05-10T09:54:57;11.02;;;2.97;;
29120;SDS011;16191;49.548;8.658;2023-05-10T09:57:24;3.92;;;1.70;;
29120;SDS011;16191;49.548;8.658;2023-05-10T09:59:51;3.15;;;1.40;;
29120;SDS011;16191;49.548;8.658;2023-05-10T10:02:20;5.53;;;2.17;;
29120;SDS011;16191;49.548;8.658;2023-05-10T10:04:48;3.53;;;1.48;;
29120;SDS011;16191;49.548;8.658;2023-05-10T10:07:17;2.80;;;1.33;;
29120;SDS011;16191;49.548;8.658;2023-05-10T10:09:49;5.93;;;1.70;;
29120;SDS011;16191;49.548;8.658;2023-05-10T10:12:16;8.43;;;2.20;;
29120;SDS011;16191;49.548;8.658;2023-05-10T10:14:43;7.15;;;1.90;;
29120;SDS011;16191;49.548;8.658;2023-05-10T10:17:09;8.77;;;3.17;;
29120;SDS011;16191;49.548;8.658;2023-05-10T10:19:36;5.00;;;1.20;;
29120;SDS011;16191;49.548;8.658;2023-05-10T10:22:04;4.30;;;1.00;;
29120;SDS011;16191;49.548;8.658;2023-05-10T10:24:31;8.63;;;2.10;;
29120;SDS011;16191;49.548;8.658;2023-05-10T10:27:04;9.70;;;2.35;;
29120;SDS011;16191;49.548;8.658;2023-05-10T10:29:46;5.93;;;1.77;;
29120;SDS011;16191;49.548;8.658;2023-05-10T10:32:24;4.88;;;1.70;;
29120;SDS011;16191;49.548;8.658;2023-05-10T10:34:56;5.00;;;1.23;;
29120;SDS011;16191;49.548;8.658;2023-05-10T10:37:23;4.90;;;1.40;;
29120;SDS011;16191;49.548;8.658;2023-05-10T10:39:50;3.17;;;1.25;;
29120;SDS011;16191;49.548;8.658;2023-05-10T10:42:43;4.75;;;1.60;;
29120;SDS011;16191;49.548;8.658;2023-05-10T10:45:13;2.90;;;1.63;;
29120;SDS011;16191;49.548;8.658;2023-05-10T10:47:40;4.05;;;1.58;;
29120;SDS011;16191;49.548;8.658;2023-05-10T10:50:09;4.85;;;1.70;;
29120;SDS011;16191;49.548;8.658;2023-05-10T10:52:37;4.03;;;1.95;;
29120;SDS011;16191;49.548;8.658;2023-05-10T10:55:11;4.90;;;1.67;;
29120;SDS011;16191;49.548;8.658;2023-05-10T11:00:28;3.47;;;2.10;;
29120;SDS011;16191;49.548;8.658;2023-05-10T11:02:59;5.63;;;2.35;;
29120;SDS011;16191;49.548;8.658;2023-05-10T11:08:09;9.97;;;2.10;;
29120;SDS011;16191;49.548;8.658;2023-05-10T11:10:38;5.47;;;2.10;;
29120;SDS011;16191;49.548;8.658;2023-05-10T11:13:06;2.28;;;1.40;;
29120;SDS011;16191;49.548;8.658;2023-05-10T11:15:35;4.85;;;1.40;;
29120;SDS011;16191;49.548;8.658;2023-05-10T11:20:57;5.03;;;1.83;;
29120;SDS011;16191;49.548;8.658;2023-05-10T11:23:51;4.35;;;1.70;;
29120;SDS011;16191;49.548;8.658;2023-05-10T11:26:23;2.55;;;1.70;;
29120;SDS011;16191;49.548;8.658;2023-05-10T11:28:53;3.23;;;1.80;;
29120;SDS011;16191;49.548;8.658;2023-05-10T11:31:24;3.78;;;1.42;;
29120;SDS011;16191;49.548;8.658;2023-05-10T11:33:53;1.83;;;1.10;;
29120;SDS011;16191;49.548;8.658;2023-05-10T11:36:29;4.63;;;1.15;;
29120;SDS011;16191;49.548;8.658;2023-05-10T11:38:59;3.97;;;1.27;;
29120;SDS011;16191;49.548;8.658;2023-05-10T11:41:27;6.47;;;1.65;;
29120;SDS011;16191;49.548;8.658;2023-05-10T11:43:55;5.97;;;1.27;;
29120;SDS011;16191;49.548;8.658;2023-05-10T11:46:23;1.75;;;1.08;;
29120;SDS011;16191;49.548;8.658;2023-05-10T11:48:58;1.90;;;1.00;;
29120;SDS011;16191;49.548;8.658;2023-05-10T11:51:32;3.33;;;0.80;;
29120;SDS011;16191;49.548;8.658;2023-05-10T11:54:00;0.93;;;0.60;;
29120;SDS011;16191;49.548;8.658;2023-05-10T11:56:27;3.60;;;0.95;;
29120;SDS011;16191;49.548;8.658;2023-05-10T11:58:54;4.43;;;1.10;;
29120;SDS011;16191;49.548;8.658;2023-05-10T12:01:27;2.13;;;0.80;;
29120;SDS011;16191;49.548;8.658;2023-05-10T12:03:55;3.22;;;0.85;;
29120;SDS011;16191;49.548;8.658;2023-05-10T12:06:27;4.45;;;0.80;;
29120;SDS011;16191;49.548;8.658;2023-05-10T12:08:55;5.85;;;1.50;;
29120;SDS011;16191;49.548;8.658;2023-05-10T12:11:25;2.92;;;1.10;;
29120;SDS011;16191;49.548;8.658;2023-05-10T12:13:54;3.85;;;1.00;;
29120;SDS011;16191;49.548;8.658;2023-05-10T12:16:26;3.15;;;1.20;;
29120;SDS011;16191;49.548;8.658;2023-05-10T12:18:59;4.18;;;0.90;;
29120;SDS011;16191;49.548;8.658;2023-05-10T12:21:30;2.25;;;1.15;;
29120;SDS011;16191;49.548;8.658;2023-05-10T12:24:01;3.40;;;1.45;;
29120;SDS011;16191;49.548;8.658;2023-05-10T12:26:29;3.70;;;0.80;;
29120;SDS011;16191;49.548;8.658;2023-05-10T12:29:12;5.75;;;1.35;;
29120;SDS011;16191;49.548;8.658;2023-05-10T12:31:53;5.97;;;1.05;;
29120;SDS011;16191;49.548;8.658;2023-05-10T12:34:25;1.75;;;0.82;;
29120;SDS011;16191;49.548;8.658;2023-05-10T12:36:59;2.83;;;0.80;;
29120;SDS011;16191;49.548;8.658;2023-05-10T12:39:26;5.63;;;1.00;;
29120;SDS011;16191;49.548;8.658;2023-05-10T12:41:52;6.85;;;1.23;;
29120;SDS011;16191;49.548;8.658;2023-05-10T12:44:19;2.05;;;0.70;;
29120;SDS011;16191;49.548;8.658;2023-05-10T12:46:45;4.05;;;1.00;;
29120;SDS011;16191;49.548;8.658;2023-05-10T12:49:12;1.63;;;0.80;;
29120;SDS011;16191;49.548;8.658;2023-05-10T12:51:38;4.65;;;1.23;;
29120;SDS011;16191;49.548;8.658;2023-05-10T12:54:05;4.35;;;0.80;;
29120;SDS011;16191;49.548;8.658;2023-05-10T12:56:32;3.30;;;0.80;;
29120;SDS011;16191;49.548;8.658;2023-05-10T12:58:58;6.10;;;0.98;;
29120;SDS011;16191;49.548;8.658;2023-05-10T13:01:25;2.38;;;0.85;;
29120;SDS011;16191;49.548;8.658;2023-05-10T13:03:51;2.33;;;0.88;;
29120;SDS011;16191;49.548;8.658;2023-05-10T13:06:18;6.68;;;1.00;;
29120;SDS011;16191;49.548;8.658;2023-05-10T13:08:44;4.95;;;1.10;;
29120;SDS011;16191;49.548;8.658;2023-05-10T13:11:11;7.85;;;1.00;;
29120;SDS011;16191;49.548;8.658;2023-05-10T13:13:37;9.07;;;1.08;;
29120;SDS011;16191;49.548;8.658;2023-05-10T13:16:04;2.78;;;0.70;;
29120;SDS011;16191;49.548;8.658;2023-05-10T13:18:31;2.50;;;0.90;;
29120;SDS011;16191;49.548;8.658;2023-05-10T13:20:57;5.20;;;1.33;;
29120;SDS011;16191;49.548;8.658;2023-05-10T13:23:24;6.90;;;1.20;;
29120;SDS011;16191;49.548;8.658;2023-05-10T13:25:51;5.18;;;1.17;;
29120;SDS011;16191;49.548;8.658;2023-05-10T13:28:17;4.32;;;1.30;;
29120;SDS011;16191;49.548;8.658;2023-05-10T13:30:44;1.77;;;0.88;;
29120;SDS011;16191;49.548;8.658;2023-05-10T13:33:10;5.20;;;0.70;;
29120;SDS011;16191;49.548;8.658;2023-05-10T13:35:37;4.03;;;1.00;;
29120;SDS011;16191;49.548;8.658;2023-05-10T13:38:03;5.05;;;1.05;;
29120;SDS011;16191;49.548;8.658;2023-05-10T13:40:30;3.63;;;1.00;;
29120;SDS011;16191;49.548;8.658;2023-05-10T13:42:56;5.95;;;1.10;;
29120;SDS011;16191;49.548;8.658;2023-05-10T13:45:23;5.85;;;1.00;;
29120;SDS011;16191;49.548;8.658;2023-05-10T13:47:49;3.13;;;1.00;;
29120;SDS011;16191;49.548;8.658;2023-05-10T13:50:16;1.88;;;0.77;;
29120;SDS011;16191;49.548;8.658;2023-05-10T13:52:43;7.07;;;1.02;;
29120;SDS011;16191;49.548;8.658;2023-05-10T13:55:09;12.95;;;0.98;;
29120;SDS011;16191;49.548;8.658;2023-05-10T13:57:38;5.82;;;0.95;;
29120;SDS011;16191;49.548;8.658;2023-05-10T14:00:05;1.45;;;0.65;;
29120;SDS011;16191;49.548;8.658;2023-05-10T14:02:33;6.40;;;0.90;;
29120;SDS011;16191;49.548;8.658;2023-05-10T14:04:59;1.63;;;0.68;;
29120;SDS011;16191;49.548;8.658;2023-05-10T14:07:26;7.75;;;1.08;;
29120;SDS011;16191;49.548;8.658;2023-05-10T14:09:52;1.05;;;0.70;;
29120;SDS011;16191;49.548;8.658;2023-05-10T14:12:19;3.55;;;0.80;;
29120;SDS011;16191;49.548;8.658;2023-05-10T14:14:45;2.70;;;0.85;;
29120;SDS011;16191;49.548;8.658;2023-05-10T14:17:12;2.58;;;0.80;;
29120;SDS011;16191;49.548;8.658;2023-05-10T14:19:38;3.83;;;0.60;;
29120;SDS011;16191;49.548;8.658;2023-05-10T14:22:05;2.45;;;0.80;;
29120;SDS011;16191;49.548;8.658;2023-05-10T14:24:32;1.88;;;0.70;;
29120;SDS011;16191;49.548;8.658;2023-05-10T14:26:58;4.68;;;0.63;;
29120;SDS011;16191;49.548;8.658;2023-05-10T14:29:25;2.67;;;0.90;;
29120;SDS011;16191;49.548;8.658;2023-05-10T14:31:52;2.40;;;0.55;;
29120;SDS011;16191;49.548;8.658;2023-05-10T14:34:18;2.72;;;0.50;;
29120;SDS011;16191;49.548;8.658;2023-05-10T14:36:45;2.90;;;0.90;;
29120;SDS011;16191;49.548;8.658;2023-05-10T14:39:12;4.95;;;0.95;;
29120;SDS011;16191;49.548;8.658;2023-05-10T14:41:39;1.15;;;0.55;;
29120;SDS011;16191;49.548;8.658;2023-05-10T14:44:09;2.47;;;0.88;;
29120;SDS011;16191;49.548;8.658;2023-05-10T14:46:36;4.88;;;0.70;;
29120;SDS011;16191;49.548;8.658;2023-05-10T14:49:03;3.13;;;0.65;;
29120;SDS011;16191;49.548;8.658;2023-05-10T14:51:29;1.70;;;0.52;;
29120;SDS011;16191;49.548;8.658;2023-05-10T14:53:56;3.17;;;0.82;;
29120;SDS011;16191;49.548;8.658;2023-05-10T14:56:22;5.03;;;0.70;;
29120;SDS011;16191;49.548;8.658;2023-05-10T14:58:49;1.67;;;0.40;;
29120;SDS011;16191;49.548;8.658;2023-05-10T15:01:16;21.35;;;0.80;;
29120;SDS011;16191;49.548;8.658;2023-05-10T15:03:43;4.70;;;1.05;;
29120;SDS011;16191;49.548;8.658;2023-05-10T15:06:10;2.05;;;0.60;;
29120;SDS011;16191;49.548;8.658;2023-05-10T15:08:38;3.95;;;0.93;;
29120;SDS011;16191;49.548;8.658;2023-05-10T15:11:04;2.95;;;0.85;;
29120;SDS011;16191;49.548;8.658;2023-05-10T15:13:31;3.45;;;0.70;;
29120;SDS011;16191;49.548;8.658;2023-05-10T15:15:57;3.05;;;0.80;;
29120;SDS011;16191;49.548;8.658;2023-05-10T15:18:24;2.58;;;0.60;;
29120;SDS011;16191;49.548;8.658;2023-05-10T15:20:50;2.53;;;0.80;;
29120;SDS011;16191;49.548;8.658;2023-05-10T15:23:17;1.75;;;0.50;;